Time;durP1;ratioP1;P1;durP2;ratioP2;P2;SDS_P1;SDS_P2;PMS_P1;PMS_P2;Temp;Humidity;BMP_temperature;BMP_pressure;BME280_temperature;BME280_humidity;BME280_pressure;Samples;Min_cycle;Max_cycle;Signal;HPM_P1;HPM_P2
2021/04/22 00:00:56;;;;;;;;;;;;;;;18.20;67.15;100974.66;4836618;29;1417;-72
2021/04/22 00:03:22;;;;;;;;;;;;;;;18.20;67.13;100968.53;4836753;29;1085;-73
2021/04/22 00:05:48;;;;;;;;;;;;;;;18.19;67.08;100966.81;4838359;29;1204;-74
2021/04/22 00:08:15;;;;;;;;;;;;;;;18.19;67.15;100972.94;4838201;29;1128;-73
2021/04/22 00:10:46;;;;;;;;;;;;;;;18.21;67.20;100967.63;4836605;29;1243;-73
2021/04/22 00:13:14;;;;;;;;;;;;;;;18.20;67.05;100971.16;4838063;29;1907;-74
2021/04/22 00:15:41;;;;;;;;;;;;;;;18.19;67.03;100966.81;4836392;29;1560;-74
2021/04/22 00:18:08;;;;;;;;;;;;;;;18.18;67.24;100965.13;4837439;29;1452;-73
2021/04/22 00:20:35;;;;;;;;;;;;;;;18.20;67.20;100971.16;4838709;29;1270;-73
2021/04/22 00:23:05;;;;;;;;;;;;;;;18.20;67.18;100971.16;4835907;29;1328;-74
2021/04/22 00:25:32;;;;;;;;;;;;;;;18.17;67.23;100966.06;4838246;29;1226;-74
2021/04/22 00:28:02;;;;;;;;;;;;;;;18.18;67.09;100965.13;4837829;29;1186;-74
2021/04/22 00:30:29;;;;;;;;;;;;;;;18.18;67.18;100965.13;4836440;29;1356;-73
2021/04/22 00:32:55;;;;;;;;;;;;;;;18.18;67.21;100960.69;4836254;29;1911;-73
2021/04/22 00:35:21;;;;;;;;;;;;;;;18.18;67.16;100965.13;4837918;29;1355;-74
2021/04/22 00:37:48;;;;;;;;;;;;;;;18.19;67.31;100961.53;4836477;29;824;-74
2021/04/22 00:40:19;;;;;;;;;;;;;;;18.16;67.23;100954.66;4839673;29;1317;-73
2021/04/22 00:42:45;;;;;;;;;;;;;;;18.18;67.05;100957.22;4839550;29;1212;-73
2021/04/22 00:45:12;;;;;;;;;;;;;;;18.16;67.30;100952.00;4841231;29;1262;-73
2021/04/22 00:47:38;;;;;;;;;;;;;;;18.18;67.23;100959.84;4841035;29;1226;-73
2021/04/22 00:50:07;;;;;;;;;;;;;;;18.17;67.16;100955.50;4839516;29;1363;-73
2021/04/22 00:52:33;;;;;;;;;;;;;;;18.15;67.20;100952.94;4840546;29;1980;-74
2021/04/22 00:55:00;;;;;;;;;;;;;;;18.15;67.07;100950.28;4839199;29;1441;-74
2021/04/22 00:57:26;;;;;;;;;;;;;;;18.17;67.20;100952.88;4839608;29;852;-74
2021/04/22 00:59:52;;;;;;;;;;;;;;;18.14;67.00;100947.75;4839255;29;1302;-75
2021/04/22 01:02:18;;;;;;;;;;;;;;;18.15;67.10;100946.84;4841045;29;1271;-74
2021/04/22 01:04:48;;;;;;;;;;;;;;;18.16;66.91;100945.88;4840844;29;1268;-75
2021/04/22 01:07:15;;;;;;;;;;;;;;;18.15;66.89;100937.13;4839107;29;836;-74
2021/04/22 01:09:42;;;;;;;;;;;;;;;18.16;66.88;100930.06;4839144;29;1302;-76
2021/04/22 01:12:10;;;;;;;;;;;;;;;18.12;67.30;100937.28;4840581;29;1970;-74
2021/04/22 01:14:36;;;;;;;;;;;;;;;18.13;67.10;100936.34;4839806;29;1675;-73
2021/04/22 01:17:03;;;;;;;;;;;;;;;18.14;67.17;100937.22;4839309;29;1319;-74
2021/04/22 01:19:29;;;;;;;;;;;;;;;18.14;67.08;100934.56;4839181;29;1340;-75
2021/04/22 01:21:56;;;;;;;;;;;;;;;18.13;67.18;100930.22;4840592;29;1031;-75
2021/04/22 01:24:22;;;;;;;;;;;;;;;18.13;67.03;100930.22;4838740;29;1277;-76
2021/04/22 01:26:48;;;;;;;;;;;;;;;18.15;67.10;100928.38;4840258;29;937;-75
2021/04/22 01:29:14;;;;;;;;;;;;;;;18.14;67.03;100924.03;4839120;29;1322;-76
2021/04/22 01:31:40;;;;;;;;;;;;;;;18.10;67.06;100925.09;4839305;29;1907;-76
2021/04/22 01:34:08;;;;;;;;;;;;;;;18.08;67.05;100919.06;4840014;29;1057;-76
2021/04/22 01:36:35;;;;;;;;;;;;;;;18.14;67.12;100926.66;4837846;29;1366;-76
2021/04/22 01:39:04;;;;;;;;;;;;;;;18.14;67.07;100927.53;4839147;29;1212;-73
2021/04/22 01:41:30;;;;;;;;;;;;;;;18.14;67.13;100927.53;4839981;29;1231;-73
2021/04/22 01:43:56;;;;;;;;;;;;;;;18.11;66.89;100926.81;4840163;29;1048;-76
2021/04/22 01:46:23;;;;;;;;;;;;;;;18.10;67.03;100922.47;4840261;29;1205;-75
2021/04/22 01:48:50;;;;;;;;;;;;;;;18.10;67.05;100925.09;4823375;29;1099;-75
2021/04/22 01:51:17;;;;;;;;;;;;;;;18.10;66.94;100918.06;4837732;29;1915;-75
2021/04/22 01:53:43;;;;;;;;;;;;;;;18.09;66.96;100911.06;4839987;29;780;-75
2021/04/22 01:56:09;;;;;;;;;;;;;;;18.07;66.81;100912.09;4823224;29;1306;-75
2021/04/22 01:58:36;;;;;;;;;;;;;;;18.09;66.90;100913.69;4839757;29;797;-73
2021/04/22 02:01:03;;;;;;;;;;;;;;;18.08;67.00;100914.66;4840208;29;1286;-73
2021/04/22 02:03:30;;;;;;;;;;;;;;;18.10;67.07;100914.56;4838481;29;1524;-73
2021/04/22 02:05:56;;;;;;;;;;;;;;;18.12;66.84;100902.16;4838422;29;1288;-73
2021/04/22 02:08:23;;;;;;;;;;;;;;;18.10;67.03;100910.16;4839906;29;820;-74
2021/04/22 02:10:49;;;;;;;;;;;;;;;18.10;66.99;100901.38;4839355;29;1238;-73
2021/04/22 02:13:17;;;;;;;;;;;;;;;18.08;66.81;100909.38;4839501;29;1915;-72
2021/04/22 02:15:44;;;;;;;;;;;;;;;18.09;67.00;100899.69;4839739;29;1271;-73
2021/04/22 02:18:10;;;;;;;;;;;;;;;18.11;66.70;100908.38;4837806;29;1287;-73
2021/04/22 02:20:37;;;;;;;;;;;;;;;18.08;66.83;100906.75;4839530;29;1362;-73
2021/04/22 02:23:05;;;;;;;;;;;;;;;18.06;66.96;100907.72;4837899;29;1291;-75
2021/04/22 02:25:31;;;;;;;;;;;;;;;18.04;66.88;100899.91;4837159;29;1304;-76
2021/04/22 02:27:58;;;;;;;;;;;;;;;18.02;66.84;100907.06;4839394;29;1171;-76
2021/04/22 02:30:27;;;;;;;;;;;;;;;18.06;66.74;100908.59;4839438;29;1307;-75
2021/04/22 02:32:53;;;;;;;;;;;;;;;18.06;66.94;100905.09;4839042;29;1980;-74
2021/04/22 02:35:22;;;;;;;;;;;;;;;18.07;66.82;100909.44;4837742;29;1258;-73
2021/04/22 02:37:48;;;;;;;;;;;;;;;18.08;66.71;100913.78;4839143;29;837;-73
2021/04/22 02:40:16;;;;;;;;;;;;;;;18.07;66.77;100914.72;4839127;29;1296;-74
2021/04/22 02:42:43;;;;;;;;;;;;;;;18.06;66.78;100924.41;4839017;29;1117;-73
2021/04/22 02:45:11;;;;;;;;;;;;;;;18.08;66.51;100914.66;4839369;29;1364;-73
2021/04/22 02:47:37;;;;;;;;;;;;;;;18.07;66.53;100915.56;4837665;29;852;-73
2021/04/22 02:50:24;;;;;;;;;;;;;;;18.05;66.79;100914.81;4837669;29;1238;-73
2021/04/22 02:52:50;;;;;;;;;;;;;;;18.06;66.65;100913.00;4822307;29;1896;-72
2021/04/22 02:55:17;;;;;;;;;;;;;;;18.05;66.75;100917.44;4837291;29;1302;-72
2021/04/22 02:58:03;;;;;;;;;;;;;;;18.02;66.80;100915.78;4838573;29;1408;-72
2021/04/22 03:00:30;;;;;;;;;;;;;;;18.03;66.97;100914.88;4838869;29;1396;-73
2021/04/22 03:02:58;;;;;;;;;;;;;;;18.05;66.61;100911.31;4838507;29;1089;-73
2021/04/22 03:05:25;;;;;;;;;;;;;;;18.04;66.54;100905.19;4838971;29;1283;-73
2021/04/22 03:07:51;;;;;;;;;;;;;;;18.03;66.49;100906.09;4838517;29;797;-74
2021/04/22 03:10:18;;;;;;;;;;;;;;;18.01;66.71;100906.19;4837239;29;1334;-74
2021/04/22 03:12:44;;;;;;;;;;;;;;;18.02;66.52;100902.63;4838526;29;2010;-73
2021/04/22 03:15:11;;;;;;;;;;;;;;;18.03;66.59;100903.47;4837121;29;1294;-74
2021/04/22 03:17:37;;;;;;;;;;;;;;;18.02;66.62;100904.44;4838565;29;990;-74
2021/04/22 03:20:04;;;;;;;;;;;;;;;18.02;66.68;100904.44;4838419;29;1353;-75
2021/04/22 03:22:32;;;;;;;;;;;;;;;18.00;66.74;100906.25;4838610;29;863;-75
2021/04/22 03:24:59;;;;;;;;;;;;;;;18.01;66.68;100905.34;4837076;29;1279;-75
2021/04/22 03:27:27;;;;;;;;;;;;;;;18.02;66.34;100907.06;4837239;29;840;-75
2021/04/22 03:29:57;;;;;;;;;;;;;;;18.04;66.52;100905.19;4837861;29;1381;-74
2021/04/22 03:32:24;;;;;;;;;;;;;;;18.01;66.59;100906.19;4838339;29;1931;-74
2021/04/22 03:34:50;;;;;;;;;;;;;;;18.01;66.53;100908.84;4836919;29;1254;-74
2021/04/22 03:37:16;;;;;;;;;;;;;;;18.00;66.34;100909.75;4838128;29;797;-74
2021/04/22 03:39:42;;;;;;;;;;;;;;;18.01;66.55;100905.34;4836789;29;1286;-75
2021/04/22 03:42:09;;;;;;;;;;;;;;;17.99;66.83;100905.41;4838426;29;776;-75
2021/04/22 03:44:35;;;;;;;;;;;;;;;18.00;66.55;100901.84;4838207;29;1251;-74
2021/04/22 03:47:02;;;;;;;;;;;;;;;17.98;66.55;100894.97;4836857;29;1196;-75
2021/04/22 03:49:28;;;;;;;;;;;;;;;17.97;66.50;100894.09;4836814;29;1460;-75
2021/04/22 03:51:54;;;;;;;;;;;;;;;17.98;66.84;100895.81;4836794;29;1990;-75
2021/04/22 03:54:21;;;;;;;;;;;;;;;17.96;66.45;100892.38;4838318;29;1253;-73
2021/04/22 03:56:47;;;;;;;;;;;;;;;17.98;66.55;100894.97;4836746;29;1274;-74
2021/04/22 03:59:13;;;;;;;;;;;;;;;18.00;66.48;100903.63;4837995;29;1347;-74
2021/04/22 04:01:39;;;;;;;;;;;;;;;18.00;66.37;100901.00;4836920;29;812;-74
2021/04/22 04:04:06;;;;;;;;;;;;;;;18.00;66.58;100901.00;4821817;29;1303;-75
2021/04/22 04:06:34;;;;;;;;;;;;;;;17.97;66.50;100895.88;4838344;29;1573;-76
2021/04/22 04:09:00;;;;;;;;;;;;;;;17.96;66.51;100892.38;4837404;29;1548;-74
2021/04/22 04:11:26;;;;;;;;;;;;;;;17.94;66.61;100891.63;4837849;29;1219;-74
2021/04/22 04:13:53;;;;;;;;;;;;;;;17.95;66.59;100890.69;4839506;29;1903;-74
2021/04/22 04:16:19;;;;;;;;;;;;;;;17.96;66.35;100897.66;4840240;29;1314;-74
2021/04/22 04:18:45;;;;;;;;;;;;;;;17.96;66.54;100897.66;4840025;29;1266;-74
2021/04/22 04:21:12;;;;;;;;;;;;;;;17.95;66.54;100893.34;4841788;29;1184;-74
2021/04/22 04:23:38;;;;;;;;;;;;;;;17.94;66.36;100899.53;4841478;29;785;-73
2021/04/22 04:26:04;;;;;;;;;;;;;;;17.92;66.44;100895.28;4841727;29;1254;-76
2021/04/22 04:28:30;;;;;;;;;;;;;;;17.93;66.62;100897.81;4840102;29;749;-75
2021/04/22 04:30:57;;;;;;;;;;;;;;;17.94;66.31;100893.41;4839929;29;1407;-74
2021/04/22 04:33:23;;;;;;;;;;;;;;;17.93;66.89;100908.34;4838881;29;1921;-75
2021/04/22 04:35:49;;;;;;;;;;;;;;;17.93;66.61;100903.09;4839892;29;1414;-76
2021/04/22 04:38:15;;;;;;;;;;;;;;;17.94;66.37;100904.81;4840114;29;785;-74
2021/04/22 04:40:42;;;;;;;;;;;;;;;17.92;66.47;100901.41;4839985;29;1319;-75
2021/04/22 04:43:08;;;;;;;;;;;;;;;17.93;66.37;100911.00;4841334;29;1086;-74
2021/04/22 04:45:34;;;;;;;;;;;;;;;17.93;66.41;100903.09;4841138;29;1242;-73
2021/04/22 04:48:01;;;;;;;;;;;;;;;17.92;66.34;100914.59;4839304;29;1378;-74
2021/04/22 04:50:27;;;;;;;;;;;;;;;17.92;66.28;100901.41;4841099;29;1367;-73
2021/04/22 04:52:54;;;;;;;;;;;;;;;17.92;66.22;100909.31;4840998;29;1915;-73
2021/04/22 04:55:20;;;;;;;;;;;;;;;17.90;66.23;100907.69;4841289;29;1297;-73
2021/04/22 04:57:46;;;;;;;;;;;;;;;17.91;66.32;100906.75;4839815;29;796;-73
2021/04/22 05:00:13;;;;;;;;;;;;;;;17.93;66.27;100904.91;4840913;29;1201;-73
2021/04/22 05:02:39;;;;;;;;;;;;;;;17.89;66.43;100912.09;4840848;29;1230;-73
2021/04/22 05:05:07;;;;;;;;;;;;;;;17.89;66.24;100912.09;4839243;29;1280;-74
2021/04/22 05:07:33;;;;;;;;;;;;;;;17.90;66.28;100905.88;4840914;29;789;-74
2021/04/22 05:10:00;;;;;;;;;;;;;;;17.90;66.37;100913.78;4840724;29;1298;-74
2021/04/22 05:12:26;;;;;;;;;;;;;;;17.92;66.27;100916.34;4839075;29;1919;-74
2021/04/22 05:14:52;;;;;;;;;;;;;;;17.88;66.14;100910.38;4840558;29;1266;-74
2021/04/22 05:17:18;;;;;;;;;;;;;;;17.90;66.30;100916.41;4839064;29;1300;-73
2021/04/22 05:19:45;;;;;;;;;;;;;;;17.89;66.77;100917.38;4838823;29;1244;-73
2021/04/22 05:22:11;;;;;;;;;;;;;;;17.90;66.33;100923.50;4841270;29;824;-70
2021/04/22 05:24:38;;;;;;;;;;;;;;;17.89;66.36;100927.06;4841130;29;1351;-71
2021/04/22 05:27:04;;;;;;;;;;;;;;;17.89;66.25;100927.91;4839337;29;1594;-72
2021/04/22 05:29:31;;;;;;;;;;;;;;;17.87;66.28;100929.75;4837921;29;1353;-70
2021/04/22 05:32:00;;;;;;;;;;;;;;;17.85;66.42;100925.50;4838080;29;1915;-75
2021/04/22 05:34:26;;;;;;;;;;;;;;;17.86;66.98;100930.69;4838839;29;1437;-70
2021/04/22 05:36:53;;;;;;;;;;;;;;;17.95;66.34;100937.28;4837910;29;1174;-74
2021/04/22 05:39:20;;;;;;;;;;;;;;;17.91;66.48;100938.38;4838896;29;1273;-74
2021/04/22 05:41:46;;;;;;;;;;;;;;;17.92;66.75;100938.31;4840665;29;1552;-71
2021/04/22 05:44:13;;;;;;;;;;;;;;;17.90;66.55;100948.03;4840198;29;1385;-73
2021/04/22 05:46:40;;;;;;;;;;;;;;;17.86;66.80;100943.88;4837662;29;740;-72
2021/04/22 05:49:06;;;;;;;;;;;;;;;17.89;67.10;100949.00;4837812;29;1164;-70
2021/04/22 05:51:33;;;;;;;;;;;;;;;17.93;66.84;100949.69;4837173;29;1594;-72
2021/04/22 05:53:59;;;;;;;;;;;;;;;17.91;66.87;100959.44;4837305;29;1911;-69
2021/04/22 05:56:25;;;;;;;;;;;;;;;17.84;66.91;100953.63;4839177;29;1326;-71
2021/04/22 05:58:52;;;;;;;;;;;;;;;17.83;67.01;100964.25;4838924;29;1083;-71
2021/04/22 06:01:18;;;;;;;;;;;;;;;17.87;67.25;100957.91;4822563;29;1270;-72
2021/04/22 06:03:45;;;;;;;;;;;;;;;17.94;66.27;100954.03;4839895;29;777;-74
2021/04/22 06:06:11;;;;;;;;;;;;;;;17.86;66.57;100961.47;4840429;29;1249;-74
2021/04/22 06:08:37;;;;;;;;;;;;;;;17.82;66.54;100968.66;4839655;29;820;-74
2021/04/22 06:11:03;;;;;;;;;;;;;;;17.83;66.94;100975.66;4838115;29;1288;-71
2021/04/22 06:13:30;;;;;;;;;;;;;;;17.82;66.75;100976.56;4838788;29;1911;-72
2021/04/22 06:15:56;;;;;;;;;;;;;;;17.80;66.73;100975.81;4839693;29;1365;-72
2021/04/22 06:18:22;;;;;;;;;;;;;;;17.80;66.90;100981.06;4839303;29;879;-73
2021/04/22 06:20:48;;;;;;;;;;;;;;;17.80;66.95;100981.06;4839209;29;1232;-74
2021/04/22 06:23:27;;;;;;;;;;;;;;;17.78;67.02;100977.66;4838188;29;741;-71
2021/04/22 06:25:54;;;;;;;;;;;;;;;17.89;67.13;100985.88;4838192;29;1587;-72
2021/04/22 06:28:21;;;;;;;;;;;;;;;17.85;66.76;100984.31;4837518;29;994;-71
2021/04/22 06:30:48;;;;;;;;;;;;;;;17.79;66.94;100989.91;4835361;29;1583;-71
2021/04/22 06:33:14;;;;;;;;;;;;;;;17.78;66.79;100985.56;4836837;29;1965;-71
2021/04/22 06:35:44;;;;;;;;;;;;;;;17.77;66.67;100986.50;4837894;29;1275;-68
2021/04/22 06:38:11;;;;;;;;;;;;;;;17.77;66.89;100998.81;4836609;29;1308;-70
2021/04/22 06:40:37;;;;;;;;;;;;;;;17.81;67.18;100995.94;4838228;29;1239;-68
2021/04/22 06:43:08;;;;;;;;;;;;;;;17.85;66.65;101000.13;4836302;29;1499;-71
2021/04/22 06:45:36;;;;;;;;;;;;;;;17.84;66.60;100998.41;4837993;29;1259;-75
2021/04/22 06:48:03;;;;;;;;;;;;;;;17.86;66.49;101004.50;4821530;29;1077;-69
2021/04/22 06:50:30;;;;;;;;;;;;;;;17.82;66.52;101007.34;4837924;29;1298;-73
2021/04/22 06:52:56;;;;;;;;;;;;;;;17.86;66.79;101012.41;4838411;29;1982;-72
2021/04/22 06:55:24;;;;;;;;;;;;;;;17.84;66.56;101014.22;4837138;29;1336;-71
2021/04/22 06:57:56;;;;;;;;;;;;;;;17.82;66.24;101020.50;4839357;29;749;-71
2021/04/22 07:00:24;;;;;;;;;;;;;;;17.80;66.53;101023.25;4836959;29;1327;-71
2021/04/22 07:02:50;;;;;;;;;;;;;;;17.79;66.58;101021.53;4839341;29;907;-71
2021/04/22 07:05:17;;;;;;;;;;;;;;;17.77;66.43;101023.38;4838880;29;1286;-71
2021/04/22 07:07:44;;;;;;;;;;;;;;;17.78;66.61;101026.88;4838226;29;859;-71
2021/04/22 07:10:10;;;;;;;;;;;;;;;17.77;66.38;101026.03;4835753;29;1505;-71
2021/04/22 07:12:37;;;;;;;;;;;;;;;17.76;66.41;101032.22;4821694;29;1911;-71
2021/04/22 07:15:05;;;;;;;;;;;;;;;17.75;66.51;101032.28;4836888;29;1349;-71
2021/04/22 07:17:31;;;;;;;;;;;;;;;17.75;66.29;101029.66;4837466;29;1556;-72
2021/04/22 07:19:58;;;;;;;;;;;;;;;17.74;66.32;101036.72;4838331;29;1253;-71
2021/04/22 07:22:25;;;;;;;;;;;;;;;17.74;66.40;101034.06;4837404;29;1433;-72
2021/04/22 07:24:54;;;;;;;;;;;;;;;17.77;66.50;101038.34;4836649;29;1298;-72
2021/04/22 07:27:21;;;;;;;;;;;;;;;17.76;66.50;101041.88;4836114;29;792;-71
2021/04/22 07:29:48;;;;;;;;;;;;;;;17.77;67.25;101039.19;4836356;29;1636;-72
2021/04/22 07:32:14;;;;;;;;;;;;;;;17.76;68.35;101037.47;4828793;29;1912;-72
2021/04/22 07:34:41;;;;;;;;;;;;;;;17.78;68.81;101047.97;4836349;29;1369;-71
2021/04/22 07:37:08;;;;;;;;;;;;;;;17.80;69.26;101043.47;4837959;29;844;-70
2021/04/22 07:39:36;;;;;;;;;;;;;;;17.80;69.26;101040.81;4838264;29;1362;-70
2021/04/22 07:42:03;;;;;;;;;;;;;;;17.81;69.13;101051.28;4837442;29;838;-71
2021/04/22 07:44:29;;;;;;;;;;;;;;;17.87;70.15;101050.16;4836839;29;1330;-69
2021/04/22 07:46:55;;;;;;;;;;;;;;;17.92;69.66;101051.63;4838361;29;981;-70
2021/04/22 07:49:22;;;;;;;;;;;;;;;17.93;69.81;101047.22;4844910;29;1760;-70
2021/04/22 07:51:48;;;;;;;;;;;;;;;17.92;70.04;101063.94;4843359;29;1225;-70
2021/04/22 07:54:15;;;;;;;;;;;;;;;17.89;69.84;101057.06;4851341;29;2026;-70
2021/04/22 07:56:41;;;;;;;;;;;;;;;17.88;69.72;101057.97;4846566;29;1322;-70
2021/04/22 07:59:07;;;;;;;;;;;;;;;17.83;69.89;101059.97;4856486;29;1126;-72
2021/04/22 08:01:33;;;;;;;;;;;;;;;17.90;69.73;101056.09;4851793;29;1348;-71
2021/04/22 08:04:00;;;;;;;;;;;;;;;17.92;69.51;101058.69;4839241;29;1135;-71
2021/04/22 08:06:27;;;;;;;;;;;;;;;17.95;69.64;101056.75;4857550;29;1495;-71
2021/04/22 08:08:53;;;;;;;;;;;;;;;17.84;69.90;101056.41;4857556;29;1066;-71
2021/04/22 08:11:19;;;;;;;;;;;;;;;17.83;69.61;101059.13;4858447;29;1227;-71
2021/04/22 08:13:46;;;;;;;;;;;;;;;17.81;69.50;101056.53;4855329;29;1990;-71
2021/04/22 08:16:13;;;;;;;;;;;;;;;17.81;69.13;101059.19;4840319;29;1290;-71
2021/04/22 08:18:39;;;;;;;;;;;;;;;17.80;69.35;101065.41;4839727;29;1180;-71
2021/04/22 08:21:06;;;;;;;;;;;;;;;17.81;69.38;101067.09;4839831;29;1285;-71
2021/04/22 08:23:32;;;;;;;;;;;;;;;17.80;69.50;101064.53;4857152;29;1262;-71
2021/04/22 08:26:00;;;;;;;;;;;;;;;17.78;69.48;101077.78;4858502;29;1345;-71
2021/04/22 08:28:47;;;;;;;;;;;;;;;17.79;69.11;101063.69;4858768;29;1279;-72
2021/04/22 08:31:28;;;;;;;;;;;;;;;17.80;68.93;101075.09;4856203;29;1580;-71
2021/04/22 08:33:57;;;;;;;;;;;;;;;17.79;69.09;101073.38;4856335;29;1911;-71
2021/04/22 08:36:24;;;;;;;;;;;;;;;17.78;68.88;101077.78;4856857;29;1256;-71
2021/04/22 08:38:51;;;;;;;;;;;;;;;17.77;68.84;101081.34;4858041;29;1049;-70
2021/04/22 08:41:18;;;;;;;;;;;;;;;17.77;68.88;101091.03;4856396;29;1363;-71
2021/04/22 08:43:44;;;;;;;;;;;;;;;17.77;68.66;101077.88;4856329;29;1077;-71
2021/04/22 08:46:11;;;;;;;;;;;;;;;17.77;68.85;101091.91;4858135;29;1319;-71
2021/04/22 08:48:42;;;;;;;;;;;;;;;17.76;69.30;101087.53;4856362;29;1562;-71
2021/04/22 08:51:09;;;;;;;;;;;;;;;17.76;69.25;101094.59;4858288;29;1291;-71
2021/04/22 08:53:36;;;;;;;;;;;;;;;17.77;69.28;101096.31;4855292;29;1990;-70
2021/04/22 08:56:03;;;;;;;;;;;;;;;17.77;69.41;101091.03;4850902;29;1351;-70
2021/04/22 08:58:30;;;;;;;;;;;;;;;17.76;69.45;101095.44;4839314;29;875;-71
2021/04/22 10:47:11;;;;;;;;;;;;;;;17.93;66.51;101140.28;4832513;29;1246;-71
2021/04/22 10:49:39;;;;;;;;;;;;;;;17.97;66.73;101135.72;4836940;29;1297;-69
2021/04/22 10:52:06;;;;;;;;;;;;;;;17.95;66.86;101138.47;4821767;29;1304;-69
2021/04/22 10:54:43;;;;;;;;;;;;;;;17.97;66.67;101135.72;4836759;29;1364;-68
2021/04/22 10:57:12;;;;;;;;;;;;;;;17.96;66.87;101124.34;4836699;29;1203;-69
2021/04/22 10:59:38;;;;;;;;;;;;;;;17.97;67.15;101130.47;4837631;29;1270;-69
2021/04/22 11:02:20;;;;;;;;;;;;;;;17.93;66.88;101124.47;4837642;29;1306;-68
2021/04/22 11:04:48;;;;;;;;;;;;;;;17.97;66.75;101133.09;4837555;29;1344;-69
2021/04/22 11:07:15;;;;;;;;;;;;;;;17.98;66.95;101126.91;4822403;29;1224;-68
2021/04/22 11:09:41;;;;;;;;;;;;;;;17.99;66.74;101139.19;4837170;29;1246;-68
2021/04/22 11:12:09;;;;;;;;;;;;;;;18.00;66.56;101130.31;4822410;29;1490;-68
2021/04/22 11:14:37;;;;;;;;;;;;;;;18.00;66.81;101135.59;4822200;29;1272;-68
2021/04/22 11:17:37;;;;;;;;;;;;;;;18.05;67.03;101132.75;4837375;29;1323;-68
2021/04/22 11:20:12;;;;;;;;;;;;;;;18.02;67.00;101134.59;4837078;29;1331;-68
2021/04/22 11:22:38;;;;;;;;;;;;;;;18.00;66.88;101133.81;4838461;29;725;-69
2021/04/22 11:25:06;;;;;;;;;;;;;;;18.01;66.99;101132.91;4838882;29;1282;-71
2021/04/22 11:27:43;;;;;;;;;;;;;;;18.10;67.06;101125.47;4837353;29;837;-68
2021/04/22 11:30:10;;;;;;;;;;;;;;;18.17;67.01;101133.03;4838562;29;1344;-66
2021/04/22 11:32:42;;;;;;;;;;;;;;;18.11;66.87;101133.31;4821659;29;1986;-69
2021/04/22 11:35:16;;;;;;;;;;;;;;;18.12;67.01;101128.91;4837264;29;1321;-68
2021/04/22 11:37:47;;;;;;;;;;;;;;;18.12;67.01;101121.00;4838280;29;848;-68
2021/04/22 11:40:16;;;;;;;;;;;;;;;18.16;67.02;101120.75;4836990;29;1228;-68
2021/04/22 11:42:44;;;;;;;;;;;;;;;18.18;66.12;101112.78;4837078;29;1295;-68
2021/04/22 11:45:12;;;;;;;;;;;;;;;18.18;65.54;101115.41;4838450;29;1364;-69
2021/04/22 11:47:47;;;;;;;;;;;;;;;18.21;64.47;101107.38;4836719;29;1263;-67
2021/04/22 11:50:15;;;;;;;;;;;;;;;18.25;64.12;101106.25;4836706;29;1450;-68
2021/04/22 11:52:48;;;;;;;;;;;;;;;18.27;63.55;101099.97;4838388;29;1911;-69
2021/04/22 11:55:34;;;;;;;;;;;;;;;18.30;63.40;101091.09;4838249;29;1351;-69
2021/04/22 11:58:05;;;;;;;;;;;;;;;18.34;63.10;101098.75;4836881;29;1159;-69
2021/04/22 12:00:36;;;;;;;;;;;;;;;18.37;62.94;101095.09;4836795;29;1379;-69
2021/04/22 12:03:04;;;;;;;;;;;;;;;18.40;63.05;101097.59;4838508;29;757;-69
2021/04/22 12:05:32;;;;;;;;;;;;;;;18.40;62.67;101092.31;4838253;29;1286;-68
2021/04/22 12:08:02;;;;;;;;;;;;;;;18.43;62.46;101092.16;4837507;29;938;-69
2021/04/22 12:10:30;;;;;;;;;;;;;;;18.46;62.53;101092.00;4837920;29;1254;-69
2021/04/22 12:13:07;;;;;;;;;;;;;;;18.48;62.58;101080.44;4837667;29;1907;-69
2021/04/22 12:15:54;;;;;;;;;;;;;;;18.54;62.36;101089.88;4838045;29;1434;-69
2021/04/22 12:18:43;;;;;;;;;;;;;;;18.60;62.13;101080.81;4837621;29;1291;-68
2021/04/22 12:21:11;;;;;;;;;;;;;;;18.59;61.73;101082.59;4836447;29;1265;-70
2021/04/22 12:23:43;;;;;;;;;;;;;;;18.58;61.90;101094.06;4836357;29;1435;-69
2021/04/22 12:26:20;;;;;;;;;;;;;;;18.61;61.45;101091.25;4836071;29;1534;-69
2021/04/22 12:28:53;;;;;;;;;;;;;;;18.63;61.60;101086.78;4836181;29;1176;-69
2021/04/22 12:31:30;;;;;;;;;;;;;;;18.66;61.55;101089.28;4821665;29;1261;-69
2021/04/22 12:34:00;;;;;;;;;;;;;;;18.65;61.46;101082.28;4837867;29;1915;-70
2021/04/22 12:36:31;;;;;;;;;;;;;;;18.75;60.90;101086.16;4839521;29;1215;-73
2021/04/22 12:38:58;;;;;;;;;;;;;;;18.79;61.55;101085.03;4839566;29;1245;-71
2021/04/22 12:41:24;;;;;;;;;;;;;;;18.84;60.89;101083.03;4824202;29;1433;-74
2021/04/22 12:44:02;;;;;;;;;;;;;;;18.86;61.78;101081.16;4839530;29;1220;-72
2021/04/22 12:46:48;;;;;;;;;;;;;;;18.88;61.79;101104.81;4839737;29;1511;-68
2021/04/22 12:49:26;;;;;;;;;;;;;;;18.84;62.02;101098.88;4840353;29;1405;-68
2021/04/22 12:51:53;;;;;;;;;;;;;;;18.83;62.38;101096.31;4839174;29;1965;-69
2021/04/22 12:54:19;;;;;;;;;;;;;;;18.83;62.78;101098.94;4840326;29;1973;-69
2021/04/22 12:56:48;;;;;;;;;;;;;;;18.81;62.93;101098.19;4840395;29;860;-69
2021/04/22 12:59:15;;;;;;;;;;;;;;;18.79;62.97;101100.88;4840750;29;1372;-70
2021/04/22 13:01:41;;;;;;;;;;;;;;;18.78;63.29;101099.19;4823686;29;1102;-69
2021/04/22 13:04:11;;;;;;;;;;;;;;;18.88;63.05;101100.41;4838108;29;1488;-72
2021/04/22 13:06:41;;;;;;;;;;;;;;;18.95;63.28;101095.66;4839268;29;1240;-70
2021/04/22 13:09:07;;;;;;;;;;;;;;;18.99;63.48;101098.06;4843332;29;1658;-71
2021/04/22 13:11:37;;;;;;;;;;;;;;;19.04;63.53;101098.69;4827976;29;1169;-69
2021/04/22 13:14:08;;;;;;;;;;;;;;;18.96;63.44;101100.03;4855028;29;1976;-72
2021/04/22 13:16:44;;;;;;;;;;;;;;;18.92;63.69;101103.75;4849698;29;1481;-71
2021/04/22 13:19:18;;;;;;;;;;;;;;;18.90;63.64;101100.34;4828885;29;1196;-71
2021/04/22 13:21:51;;;;;;;;;;;;;;;18.87;63.66;101106.63;4836652;29;1356;-71
2021/04/22 13:24:19;;;;;;;;;;;;;;;18.86;63.95;101107.56;4836596;29;1296;-70
2021/04/22 13:26:58;;;;;;;;;;;;;;;18.86;64.22;101110.19;4853370;29;1160;-71
2021/04/22 13:29:26;;;;;;;;;;;;;;;18.88;63.89;101104.81;4855445;29;1219;-70
2021/04/22 13:32:00;;;;;;;;;;;;;;;18.89;64.31;101106.53;4854581;29;1230;-69
2021/04/22 13:34:27;;;;;;;;;;;;;;;18.87;64.06;101101.34;4854807;29;1911;-71
2021/04/22 13:36:58;;;;;;;;;;;;;;;18.87;64.18;101097.84;4855133;29;1075;-70
2021/04/22 13:39:33;;;;;;;;;;;;;;;18.89;64.60;101101.25;4855298;29;1407;-70
2021/04/22 13:42:00;;;;;;;;;;;;;;;18.87;64.38;101109.28;4853875;29;1249;-70
2021/04/22 13:44:28;;;;;;;;;;;;;;;18.88;64.32;101099.53;4837747;29;1251;-69
2021/04/22 13:46:56;;;;;;;;;;;;;;;18.89;64.33;101101.25;4836106;29;1359;-72
2021/04/22 13:49:24;;;;;;;;;;;;;;;18.89;64.25;101103.91;4836197;29;1435;-71
2021/04/22 13:51:51;;;;;;;;;;;;;;;18.85;64.17;101090.00;4837599;29;891;-74
2021/04/22 13:54:19;;;;;;;;;;;;;;;18.87;64.26;101095.22;4821111;29;1986;-73
2021/04/22 13:56:53;;;;;;;;;;;;;;;18.85;64.64;101097.91;4837816;29;1104;-73
2021/04/22 13:59:24;;;;;;;;;;;;;;;18.86;64.57;101107.56;4836297;29;1324;-72
2021/04/22 14:01:58;;;;;;;;;;;;;;;18.87;64.56;101105.78;4836097;29;1069;-70
2021/04/22 14:04:25;;;;;;;;;;;;;;;18.85;64.32;101105.84;4835675;29;1624;-69
2021/04/22 14:07:11;;;;;;;;;;;;;;;18.86;64.79;101107.56;4836763;29;1177;-70
2021/04/22 14:09:38;;;;;;;;;;;;;;;18.86;64.54;101101.41;4836244;29;1207;-69
2021/04/22 14:12:11;;;;;;;;;;;;;;;18.86;65.07;101101.41;4821767;29;1564;-72
2021/04/22 14:14:38;;;;;;;;;;;;;;;18.87;65.31;101098.72;4837049;29;1935;-68
2021/04/22 14:17:07;;;;;;;;;;;;;;;18.85;65.36;101092.63;4845377;29;1255;-69
2021/04/22 14:19:34;;;;;;;;;;;;;;;18.85;64.77;101097.06;4853880;29;1337;-70
2021/04/22 14:22:05;;;;;;;;;;;;;;;18.83;65.35;101091.03;4851949;29;1532;-70
2021/04/22 14:24:32;;;;;;;;;;;;;;;18.81;65.44;101085.84;4835420;29;1358;-70
2021/04/22 14:26:59;;;;;;;;;;;;;;;18.82;65.63;101079.59;4835630;29;1162;-73
2021/04/22 14:29:26;;;;;;;;;;;;;;;18.92;68.57;101079.97;4835384;29;1215;-69
2021/04/22 14:31:57;;;;;;;;;;;;;;;18.89;67.16;101081.00;4835586;29;1544;-68
2021/04/22 14:34:24;;;;;;;;;;;;;;;18.89;68.47;101085.41;4836364;29;1978;-69
2021/04/22 14:36:51;;;;;;;;;;;;;;;18.87;68.02;101077.59;4835227;29;1061;-68
2021/04/22 14:39:22;;;;;;;;;;;;;;;18.90;69.53;101071.31;4833999;29;1628;-69